Wilmington, NC (28401)

5:14 AM EDT on September 01, 2015 (GMT -0400)
Woodlawn | | Change Station
CLOSE
Current Station
Personal Weather Station
Location: Wilmington, NC
Elevation: 30 ft
Nearby Weather Stations

Elev 30 ft 34.21 °N, 77.94 °W | Updated 2 seconds ago

Overcast
Overcast
72.5 °F
Feels Like 72.5 °F
N
0.0
Wind Variable Wind from NE
Gusts 0.0 mph

Today
High -- | Low -- °F
--% Chance of Precip.
Yesterday
High -- | Low -- °F
Precip. -- in
6:44 AM 7:38 PM
Waning Gibbous, 90% visible
Pressure 30.05 in
Visibility 3.0 miles
Clouds Overcast 200 ft
Dew Point 72 °F
Humidity 97%
Rainfall 0.00 in
Snow Depth Not available.
UV 0.0 out of 12
Pollen 2.90 out of 12
Air Quality Not available.
Flu Activity Not available.
SPECI KILM 010909Z AUTO 30005KT 3SM R35/5500VP6000FT BR OVC002 23/22 A3005 RMK AO2 T02280222 $
Pressure 30.05 in
Visibility 3.0 miles
Clouds Overcast 200 ft
Dew Point 72 °F
Humidity 97%
Rainfall 0.00 in
Snow Depth Not available.
UV 0.0 out of 12
Pollen 2.90 out of 12
Air Quality Not available.
Flu Activity Not available.
SPECI KILM 010909Z AUTO 30005KT 3SM R35/5500VP6000FT BR OVC002 23/22 A3005 RMK AO2 T02280222 $

10-Day Weather Forecast

×

Almanac

Astronomy

Sep. 01, 2015 Rise Set
Actual Time
Civil Twilight
Nautical Twilight
Astronomical Twilight
Moon
Length of Visible Light
Length of Day
Tomorrow will be .
, % of the Moon is Illuminated

Today's Extremes

State Highs State Lows

Community

WunderPhotos

Upload Photos

1,851,490 photos uploaded!

WunderBlogs® & News

Nearby

Air Quality

  Air Quality AQ Index Pollutant
Not available.

Snow Depth

Station Depth Elevation

Earthquake Activity

City Distance Mag. Time & Date
Minimum magnitude displayed is 2.5.

Coastal Water Temperatures

Place Temperature

Stations

Nearby Weather Stations

Station Location Temp. Windchill Dew Point Humidity Wind Precip. Elev Updated Type